Aérodrome :
LOGIN :

S'inscrire | Disclaimer

   EN    FR    IT 

 










Légende :    VFR   VFR Marginal   IFR   IFR Intensif   IFR Très Intensif
Visi : 
Plafond : 
>= 8 km
>= 3000ft
5 à 8 km
1000 à 3000 ft
1500m à 5 km
500 à 1000 ft
800 à 1500m
200 à 500 ft
< 800m
< 200 ft
Symboles :   Orages  Brouillard  Fortes neiges  Fortes précipitations  Vent > 20 kt
SIGMETs :   Divers  Orages  Givrage  Turbulence  Onde Orograph.  Cendres Volcan.







- Altitude de l'aérodrome : 1273 ft
- Code IATA : LJU


LJLJ - Ljubljana

METARs EXPIRÉS :
  • 241430Z 28004KT 250V320 9999 -SHRA FEW033 SCT057TCU BKN130 24/20 Q1015 RESHRA BECMG NSW
  • 241400Z 03007KT 340V090 9999 -SHRA VCTS FEW050CB SCT057 BKN130 26/19 Q1015 RERAGR NOSIG
  • 241330Z 31012G24KT 250V350 9999 -TSRA SCT050CB BKN057 27/20 Q1015 BECMG TSRA
  • 241300Z 12006KT 070V220 9999 VCTS SCT050CB BKN057 31/18 Q1014 TEMPO TSRA
  • 241230Z 10005KT 030V150 9999 FEW050CB SCT057 32/19 Q1015 NOSIG
  • 241200Z 06005KT 350V100 9999 FEW050CB SCT057 32/18 Q1015 NOSIG

Prévision TAF périmée.
Pas de NOTAMs connus pour ce terrain.
1 SIGMET publié pour la FIR Ljubljana (LJLA) :
 
Orages fréquents
LJLA SIGMET 1 VALID 250000/250300 LJLJ
LJLA LJUBLJANA FIR FRQ TS OBS WI N4635 E01423 - N4715 E01529 - N4654 E01558 - N4620 E01447 - N4635 E01423 TOP FL400 MOV ESE 15KT NC=



MET'MAP, la Météo Aéronautique d'un coup d'oeil ! - Copyright ORBIFLY Décembre 2007 - Disclaimer

ORBIFLY MET'MAP TEAM :

Programmation & Développement : Alexandra Zaïnal
Conception & Développement : Baudouin d'Aumeries
Co-Programmation & Développement : Marc-Olivier Méhu
Soutien technique & logistique : Manuel Goepfert

Contact : metmap@orbifly.com




SOURCES & CREDITS :

   NOAA